sensor_id;sensor_type;location;lat;lon;timestamp;P1;durP1;ratioP1;P2;durP2;ratioP2
75993;SDS011;64680;53.800;9.988;2022-12-20T00:00:12;17.98;;;8.82;;
75993;SDS011;64680;53.800;9.988;2022-12-20T00:02:38;14.48;;;9.35;;
75993;SDS011;64680;53.800;9.988;2022-12-20T00:05:04;16.73;;;8.52;;
75993;SDS011;64680;53.800;9.988;2022-12-20T00:07:30;15.50;;;8.25;;
75993;SDS011;64680;53.800;9.988;2022-12-20T00:09:56;16.48;;;8.77;;
75993;SDS011;64680;53.800;9.988;2022-12-20T00:12:21;16.42;;;8.82;;
75993;SDS011;64680;53.800;9.988;2022-12-20T00:14:47;12.80;;;7.57;;
75993;SDS011;64680;53.800;9.988;2022-12-20T00:17:13;14.75;;;8.55;;
75993;SDS011;64680;53.800;9.988;2022-12-20T00:19:38;17.02;;;7.93;;
75993;SDS011;64680;53.800;9.988;2022-12-20T00:22:04;15.32;;;8.63;;
75993;SDS011;64680;53.800;9.988;2022-12-20T00:24:29;13.25;;;7.38;;
75993;SDS011;64680;53.800;9.988;2022-12-20T00:26:57;14.93;;;7.47;;
75993;SDS011;64680;53.800;9.988;2022-12-20T00:29:22;13.73;;;8.38;;
75993;SDS011;64680;53.800;9.988;2022-12-20T00:31:48;14.20;;;7.78;;
75993;SDS011;64680;53.800;9.988;2022-12-20T00:34:14;12.15;;;7.15;;
75993;SDS011;64680;53.800;9.988;2022-12-20T00:36:39;13.65;;;7.40;;
75993;SDS011;64680;53.800;9.988;2022-12-20T00:39:05;15.88;;;8.45;;
75993;SDS011;64680;53.800;9.988;2022-12-20T00:41:31;12.73;;;7.38;;
75993;SDS011;64680;53.800;9.988;2022-12-20T00:43:58;12.35;;;7.10;;
75993;SDS011;64680;53.800;9.988;2022-12-20T00:46:24;17.88;;;7.70;;
75993;SDS011;64680;53.800;9.988;2022-12-20T00:48:50;12.15;;;7.40;;
75993;SDS011;64680;53.800;9.988;2022-12-20T00:51:18;14.38;;;7.82;;
75993;SDS011;64680;53.800;9.988;2022-12-20T00:53:45;14.55;;;7.43;;
75993;SDS011;64680;53.800;9.988;2022-12-20T00:56:12;14.55;;;7.40;;
75993;SDS011;64680;53.800;9.988;2022-12-20T00:58:38;13.68;;;7.45;;
75993;SDS011;64680;53.800;9.988;2022-12-20T01:01:06;14.00;;;7.88;;
75993;SDS011;64680;53.800;9.988;2022-12-20T01:03:40;12.77;;;6.85;;
75993;SDS011;64680;53.800;9.988;2022-12-20T01:06:05;12.95;;;7.18;;
75993;SDS011;64680;53.800;9.988;2022-12-20T01:08:31;14.85;;;7.10;;
75993;SDS011;64680;53.800;9.988;2022-12-20T01:10:57;13.43;;;7.93;;
75993;SDS011;64680;53.800;9.988;2022-12-20T01:13:27;13.27;;;6.97;;
75993;SDS011;64680;53.800;9.988;2022-12-20T01:15:53;12.55;;;6.70;;
75993;SDS011;64680;53.800;9.988;2022-12-20T01:18:19;15.35;;;7.47;;
75993;SDS011;64680;53.800;9.988;2022-12-20T01:20:45;13.32;;;7.18;;
75993;SDS011;64680;53.800;9.988;2022-12-20T01:23:10;11.43;;;6.55;;
75993;SDS011;64680;53.800;9.988;2022-12-20T01:25:36;12.00;;;6.50;;
75993;SDS011;64680;53.800;9.988;2022-12-20T01:28:02;14.52;;;6.75;;
75993;SDS011;64680;53.800;9.988;2022-12-20T01:30:27;14.93;;;7.78;;
75993;SDS011;64680;53.800;9.988;2022-12-20T01:32:53;12.90;;;7.22;;
75993;SDS011;64680;53.800;9.988;2022-12-20T01:35:18;12.05;;;6.57;;
75993;SDS011;64680;53.800;9.988;2022-12-20T01:37:44;12.02;;;7.00;;
75993;SDS011;64680;53.800;9.988;2022-12-20T01:40:10;10.52;;;6.63;;
75993;SDS011;64680;53.800;9.988;2022-12-20T01:42:36;13.93;;;8.13;;
75993;SDS011;64680;53.800;9.988;2022-12-20T01:45:02;13.20;;;6.93;;
75993;SDS011;64680;53.800;9.988;2022-12-20T01:47:33;11.30;;;6.55;;
75993;SDS011;64680;53.800;9.988;2022-12-20T01:50:02;12.68;;;6.75;;
75993;SDS011;64680;53.800;9.988;2022-12-20T01:52:34;11.48;;;5.88;;
75993;SDS011;64680;53.800;9.988;2022-12-20T01:55:04;11.65;;;6.45;;
75993;SDS011;64680;53.800;9.988;2022-12-20T01:57:39;10.63;;;6.68;;
75993;SDS011;64680;53.800;9.988;2022-12-20T02:00:12;12.73;;;6.97;;
75993;SDS011;64680;53.800;9.988;2022-12-20T02:02:38;11.55;;;6.95;;
75993;SDS011;64680;53.800;9.988;2022-12-20T02:05:05;9.32;;;5.93;;
75993;SDS011;64680;53.800;9.988;2022-12-20T02:07:32;13.27;;;6.75;;
75993;SDS011;64680;53.800;9.988;2022-12-20T02:10:00;12.82;;;6.13;;
75993;SDS011;64680;53.800;9.988;2022-12-20T02:12:30;10.48;;;5.97;;
75993;SDS011;64680;53.800;9.988;2022-12-20T02:21:22;12.30;;;6.85;;
75993;SDS011;64680;53.800;9.988;2022-12-20T02:34:40;12.20;;;6.05;;
75993;SDS011;64680;53.800;9.988;2022-12-20T02:37:06;13.00;;;6.45;;
75993;SDS011;64680;53.800;9.988;2022-12-20T02:39:33;10.80;;;6.13;;
75993;SDS011;64680;53.800;9.988;2022-12-20T02:42:05;10.95;;;6.03;;
75993;SDS011;64680;53.800;9.988;2022-12-20T02:44:34;11.00;;;6.47;;
75993;SDS011;64680;53.800;9.988;2022-12-20T02:47:26;13.10;;;7.63;;
75993;SDS011;64680;53.800;9.988;2022-12-20T02:49:56;11.10;;;6.68;;
75993;SDS011;64680;53.800;9.988;2022-12-20T02:52:22;11.75;;;6.78;;
75993;SDS011;64680;53.800;9.988;2022-12-20T02:54:51;13.98;;;7.28;;
75993;SDS011;64680;53.800;9.988;2022-12-20T02:57:23;12.25;;;6.72;;
75993;SDS011;64680;53.800;9.988;2022-12-20T03:02:29;14.43;;;6.15;;
75993;SDS011;64680;53.800;9.988;2022-12-20T03:05:15;13.55;;;7.25;;
75993;SDS011;64680;53.800;9.988;2022-12-20T03:07:42;9.40;;;5.72;;
75993;SDS011;64680;53.800;9.988;2022-12-20T03:10:07;12.15;;;6.47;;
75993;SDS011;64680;53.800;9.988;2022-12-20T03:12:34;11.00;;;6.13;;
75993;SDS011;64680;53.800;9.988;2022-12-20T03:14:59;10.27;;;5.25;;
75993;SDS011;64680;53.800;9.988;2022-12-20T03:17:25;9.18;;;5.75;;
75993;SDS011;64680;53.800;9.988;2022-12-20T03:19:50;11.32;;;6.07;;
75993;SDS011;64680;53.800;9.988;2022-12-20T03:22:16;9.60;;;5.85;;
75993;SDS011;64680;53.800;9.988;2022-12-20T03:24:41;10.02;;;6.00;;
75993;SDS011;64680;53.800;9.988;2022-12-20T03:27:07;10.27;;;5.93;;
75993;SDS011;64680;53.800;9.988;2022-12-20T03:29:33;10.88;;;6.07;;
75993;SDS011;64680;53.800;9.988;2022-12-20T03:31:58;11.75;;;6.28;;
75993;SDS011;64680;53.800;9.988;2022-12-20T03:34:24;13.20;;;6.38;;
75993;SDS011;64680;53.800;9.988;2022-12-20T03:36:50;10.40;;;5.80;;
75993;SDS011;64680;53.800;9.988;2022-12-20T03:39:15;10.60;;;5.57;;
75993;SDS011;64680;53.800;9.988;2022-12-20T03:41:41;11.82;;;6.53;;
75993;SDS011;64680;53.800;9.988;2022-12-20T03:44:06;10.40;;;5.75;;
75993;SDS011;64680;53.800;9.988;2022-12-20T03:46:32;9.60;;;5.65;;
75993;SDS011;64680;53.800;9.988;2022-12-20T03:48:57;9.57;;;5.57;;
75993;SDS011;64680;53.800;9.988;2022-12-20T03:51:23;9.85;;;5.70;;
75993;SDS011;64680;53.800;9.988;2022-12-20T03:53:49;9.63;;;5.68;;
75993;SDS011;64680;53.800;9.988;2022-12-20T03:56:14;10.98;;;6.05;;
75993;SDS011;64680;53.800;9.988;2022-12-20T03:58:40;10.52;;;6.03;;
75993;SDS011;64680;53.800;9.988;2022-12-20T04:01:39;11.18;;;5.57;;
75993;SDS011;64680;53.800;9.988;2022-12-20T04:04:00;10.63;;;5.85;;
75993;SDS011;64680;53.800;9.988;2022-12-20T04:06:26;10.25;;;5.20;;
75993;SDS011;64680;53.800;9.988;2022-12-20T04:08:52;10.15;;;5.25;;
75993;SDS011;64680;53.800;9.988;2022-12-20T04:11:18;8.13;;;5.78;;
75993;SDS011;64680;53.800;9.988;2022-12-20T04:13:45;13.18;;;6.10;;
75993;SDS011;64680;53.800;9.988;2022-12-20T04:16:13;9.95;;;5.63;;
75993;SDS011;64680;53.800;9.988;2022-12-20T04:18:39;8.93;;;5.22;;
75993;SDS011;64680;53.800;9.988;2022-12-20T04:21:05;10.05;;;5.32;;
75993;SDS011;64680;53.800;9.988;2022-12-20T04:23:31;11.65;;;5.63;;
75993;SDS011;64680;53.800;9.988;2022-12-20T04:25:58;8.50;;;5.45;;
75993;SDS011;64680;53.800;9.988;2022-12-20T04:28:24;10.80;;;5.80;;
75993;SDS011;64680;53.800;9.988;2022-12-20T04:30:50;9.55;;;5.85;;
75993;SDS011;64680;53.800;9.988;2022-12-20T04:33:15;8.38;;;4.78;;
75993;SDS011;64680;53.800;9.988;2022-12-20T04:35:41;9.82;;;5.07;;
75993;SDS011;64680;53.800;9.988;2022-12-20T04:38:06;8.82;;;4.72;;
75993;SDS011;64680;53.800;9.988;2022-12-20T04:40:32;9.25;;;5.13;;
75993;SDS011;64680;53.800;9.988;2022-12-20T04:42:57;10.95;;;5.40;;
75993;SDS011;64680;53.800;9.988;2022-12-20T04:45:23;9.65;;;5.30;;
75993;SDS011;64680;53.800;9.988;2022-12-20T04:47:48;9.70;;;5.50;;
75993;SDS011;64680;53.800;9.988;2022-12-20T04:50:14;9.57;;;5.45;;
75993;SDS011;64680;53.800;9.988;2022-12-20T04:52:39;8.85;;;5.15;;
75993;SDS011;64680;53.800;9.988;2022-12-20T04:55:23;10.13;;;5.55;;
75993;SDS011;64680;53.800;9.988;2022-12-20T04:57:49;7.97;;;5.13;;
75993;SDS011;64680;53.800;9.988;2022-12-20T05:00:15;7.95;;;5.55;;
75993;SDS011;64680;53.800;9.988;2022-12-20T05:02:41;9.93;;;5.82;;
75993;SDS011;64680;53.800;9.988;2022-12-20T05:05:07;9.30;;;5.65;;
75993;SDS011;64680;53.800;9.988;2022-12-20T05:07:32;11.50;;;5.80;;
75993;SDS011;64680;53.800;9.988;2022-12-20T05:09:58;11.52;;;5.63;;
75993;SDS011;64680;53.800;9.988;2022-12-20T05:12:24;10.85;;;5.90;;
75993;SDS011;64680;53.800;9.988;2022-12-20T05:14:49;11.45;;;6.05;;
75993;SDS011;64680;53.800;9.988;2022-12-20T05:17:15;10.32;;;6.38;;
75993;SDS011;64680;53.800;9.988;2022-12-20T05:19:40;14.15;;;6.95;;
75993;SDS011;64680;53.800;9.988;2022-12-20T05:22:06;11.38;;;6.45;;
75993;SDS011;64680;53.800;9.988;2022-12-20T05:24:50;12.93;;;7.57;;
75993;SDS011;64680;53.800;9.988;2022-12-20T05:27:34;11.82;;;7.60;;
75993;SDS011;64680;53.800;9.988;2022-12-20T05:30:00;13.40;;;7.25;;
75993;SDS011;64680;53.800;9.988;2022-12-20T05:32:25;12.10;;;6.32;;
75993;SDS011;64680;53.800;9.988;2022-12-20T05:34:51;13.63;;;7.50;;
75993;SDS011;64680;53.800;9.988;2022-12-20T05:37:16;13.00;;;6.95;;
75993;SDS011;64680;53.800;9.988;2022-12-20T05:39:42;12.90;;;7.25;;
75993;SDS011;64680;53.800;9.988;2022-12-20T05:42:08;12.77;;;7.03;;
75993;SDS011;64680;53.800;9.988;2022-12-20T05:44:33;12.88;;;6.95;;
75993;SDS011;64680;53.800;9.988;2022-12-20T05:46:59;15.27;;;7.32;;
75993;SDS011;64680;53.800;9.988;2022-12-20T05:49:24;12.75;;;6.70;;
75993;SDS011;64680;53.800;9.988;2022-12-20T05:51:50;12.85;;;7.43;;
75993;SDS011;64680;53.800;9.988;2022-12-20T05:54:15;11.50;;;5.78;;
75993;SDS011;64680;53.800;9.988;2022-12-20T05:56:41;12.32;;;7.32;;
75993;SDS011;64680;53.800;9.988;2022-12-20T05:59:06;13.45;;;7.07;;
75993;SDS011;64680;53.800;9.988;2022-12-20T06:01:33;11.98;;;6.88;;
75993;SDS011;64680;53.800;9.988;2022-12-20T06:03:59;14.80;;;7.60;;
75993;SDS011;64680;53.800;9.988;2022-12-20T06:06:24;13.30;;;6.68;;
75993;SDS011;64680;53.800;9.988;2022-12-20T06:08:50;15.07;;;7.50;;
75993;SDS011;64680;53.800;9.988;2022-12-20T06:11:16;11.30;;;6.65;;
75993;SDS011;64680;53.800;9.988;2022-12-20T06:13:41;12.45;;;6.65;;
75993;SDS011;64680;53.800;9.988;2022-12-20T06:16:07;12.65;;;6.95;;
75993;SDS011;64680;53.800;9.988;2022-12-20T06:18:32;13.32;;;7.65;;
75993;SDS011;64680;53.800;9.988;2022-12-20T06:20:58;14.02;;;7.10;;
75993;SDS011;64680;53.800;9.988;2022-12-20T06:23:24;15.25;;;7.07;;
75993;SDS011;64680;53.800;9.988;2022-12-20T06:25:49;10.20;;;6.13;;
75993;SDS011;64680;53.800;9.988;2022-12-20T06:28:16;13.55;;;7.15;;
75993;SDS011;64680;53.800;9.988;2022-12-20T06:30:54;13.07;;;6.63;;
75993;SDS011;64680;53.800;9.988;2022-12-20T06:33:21;12.65;;;6.35;;
75993;SDS011;64680;53.800;9.988;2022-12-20T06:35:50;18.15;;;7.65;;
75993;SDS011;64680;53.800;9.988;2022-12-20T06:38:16;13.52;;;7.95;;
75993;SDS011;64680;53.800;9.988;2022-12-20T06:40:42;13.07;;;6.93;;
75993;SDS011;64680;53.800;9.988;2022-12-20T06:43:08;15.98;;;7.55;;
75993;SDS011;64680;53.800;9.988;2022-12-20T06:45:34;12.98;;;7.38;;
75993;SDS011;64680;53.800;9.988;2022-12-20T06:47:59;13.05;;;6.63;;
75993;SDS011;64680;53.800;9.988;2022-12-20T06:50:25;13.57;;;7.35;;
75993;SDS011;64680;53.800;9.988;2022-12-20T06:52:51;13.70;;;7.10;;
75993;SDS011;64680;53.800;9.988;2022-12-20T06:55:17;16.25;;;7.50;;
75993;SDS011;64680;53.800;9.988;2022-12-20T06:57:42;12.55;;;7.15;;
75993;SDS011;64680;53.800;9.988;2022-12-20T07:00:08;14.20;;;7.18;;
75993;SDS011;64680;53.800;9.988;2022-12-20T07:02:34;14.13;;;6.78;;
75993;SDS011;64680;53.800;9.988;2022-12-20T07:05:00;12.80;;;7.05;;
75993;SDS011;64680;53.800;9.988;2022-12-20T07:07:26;13.70;;;7.22;;
75993;SDS011;64680;53.800;9.988;2022-12-20T07:09:51;13.23;;;6.68;;
75993;SDS011;64680;53.800;9.988;2022-12-20T07:12:17;18.20;;;7.68;;
75993;SDS011;64680;53.800;9.988;2022-12-20T07:14:42;10.93;;;6.65;;
75993;SDS011;64680;53.800;9.988;2022-12-20T07:17:08;12.60;;;6.40;;
75993;SDS011;64680;53.800;9.988;2022-12-20T07:19:34;14.80;;;7.97;;
75993;SDS011;64680;53.800;9.988;2022-12-20T07:22:00;11.68;;;7.60;;
75993;SDS011;64680;53.800;9.988;2022-12-20T07:24:27;13.77;;;6.70;;
75993;SDS011;64680;53.800;9.988;2022-12-20T07:26:53;10.70;;;6.88;;
75993;SDS011;64680;53.800;9.988;2022-12-20T07:29:19;11.30;;;6.78;;
75993;SDS011;64680;53.800;9.988;2022-12-20T07:31:44;14.18;;;7.72;;
75993;SDS011;64680;53.800;9.988;2022-12-20T07:34:10;12.43;;;6.85;;
75993;SDS011;64680;53.800;9.988;2022-12-20T07:36:35;10.93;;;6.75;;
75993;SDS011;64680;53.800;9.988;2022-12-20T07:39:01;12.25;;;7.18;;
75993;SDS011;64680;53.800;9.988;2022-12-20T07:41:27;13.75;;;7.05;;
75993;SDS011;64680;53.800;9.988;2022-12-20T07:43:52;13.60;;;7.80;;
75993;SDS011;64680;53.800;9.988;2022-12-20T07:46:18;12.43;;;7.90;;
75993;SDS011;64680;53.800;9.988;2022-12-20T07:48:44;13.90;;;7.07;;
75993;SDS011;64680;53.800;9.988;2022-12-20T07:51:11;11.70;;;6.88;;
75993;SDS011;64680;53.800;9.988;2022-12-20T07:54:01;12.27;;;6.82;;
75993;SDS011;64680;53.800;9.988;2022-12-20T07:56:37;13.63;;;7.88;;
75993;SDS011;64680;53.800;9.988;2022-12-20T07:59:07;12.40;;;7.13;;
75993;SDS011;64680;53.800;9.988;2022-12-20T08:01:35;15.60;;;7.75;;
75993;SDS011;64680;53.800;9.988;2022-12-20T08:04:05;12.55;;;7.00;;
75993;SDS011;64680;53.800;9.988;2022-12-20T08:06:35;11.48;;;7.72;;
75993;SDS011;64680;53.800;9.988;2022-12-20T08:09:02;15.55;;;8.18;;
75993;SDS011;64680;53.800;9.988;2022-12-20T08:11:29;12.35;;;7.55;;
75993;SDS011;64680;53.800;9.988;2022-12-20T08:13:58;12.55;;;7.72;;
75993;SDS011;64680;53.800;9.988;2022-12-20T08:16:24;13.13;;;8.00;;
75993;SDS011;64680;53.800;9.988;2022-12-20T08:18:50;13.73;;;8.48;;
75993;SDS011;64680;53.800;9.988;2022-12-20T08:21:16;12.40;;;6.82;;
75993;SDS011;64680;53.800;9.988;2022-12-20T08:23:41;11.70;;;6.53;;
75993;SDS011;64680;53.800;9.988;2022-12-20T08:26:07;12.88;;;7.43;;
75993;SDS011;64680;53.800;9.988;2022-12-20T08:28:33;12.25;;;7.13;;
75993;SDS011;64680;53.800;9.988;2022-12-20T08:31:02;12.73;;;6.70;;
75993;SDS011;64680;53.800;9.988;2022-12-20T08:33:28;11.43;;;6.32;;
75993;SDS011;64680;53.800;9.988;2022-12-20T08:35:58;12.70;;;7.35;;
75993;SDS011;64680;53.800;9.988;2022-12-20T08:38:25;9.88;;;5.93;;
75993;SDS011;64680;53.800;9.988;2022-12-20T08:40:52;12.02;;;6.93;;
75993;SDS011;64680;53.800;9.988;2022-12-20T08:43:17;10.70;;;5.97;;
75993;SDS011;64680;53.800;9.988;2022-12-20T08:45:43;11.65;;;6.03;;
75993;SDS011;64680;53.800;9.988;2022-12-20T08:48:08;11.25;;;6.82;;
75993;SDS011;64680;53.800;9.988;2022-12-20T08:50:34;12.43;;;6.78;;
75993;SDS011;64680;53.800;9.988;2022-12-20T08:53:00;12.10;;;6.20;;
75993;SDS011;64680;53.800;9.988;2022-12-20T08:55:26;11.35;;;5.60;;
75993;SDS011;64680;53.800;9.988;2022-12-20T08:57:51;9.95;;;5.85;;
75993;SDS011;64680;53.800;9.988;2022-12-20T09:00:17;10.90;;;6.25;;
75993;SDS011;64680;53.800;9.988;2022-12-20T09:02:43;11.48;;;6.10;;
75993;SDS011;64680;53.800;9.988;2022-12-20T09:05:08;10.15;;;6.00;;
75993;SDS011;64680;53.800;9.988;2022-12-20T09:07:34;12.32;;;6.03;;
75993;SDS011;64680;53.800;9.988;2022-12-20T09:10:00;9.85;;;5.72;;
75993;SDS011;64680;53.800;9.988;2022-12-20T09:12:27;11.70;;;6.07;;
75993;SDS011;64680;53.800;9.988;2022-12-20T09:14:52;10.70;;;5.63;;
75993;SDS011;64680;53.800;9.988;2022-12-20T09:17:18;10.05;;;5.55;;
75993;SDS011;64680;53.800;9.988;2022-12-20T09:19:43;9.75;;;5.93;;
75993;SDS011;64680;53.800;9.988;2022-12-20T09:22:09;10.65;;;5.70;;
75993;SDS011;64680;53.800;9.988;2022-12-20T09:24:36;9.27;;;5.38;;
75993;SDS011;64680;53.800;9.988;2022-12-20T09:27:02;12.73;;;6.22;;
75993;SDS011;64680;53.800;9.988;2022-12-20T09:29:27;10.15;;;6.35;;
75993;SDS011;64680;53.800;9.988;2022-12-20T09:31:53;10.30;;;6.13;;
75993;SDS011;64680;53.800;9.988;2022-12-20T09:34:19;11.30;;;6.30;;
75993;SDS011;64680;53.800;9.988;2022-12-20T09:36:44;12.00;;;6.13;;
75993;SDS011;64680;53.800;9.988;2022-12-20T09:39:10;12.52;;;6.25;;
75993;SDS011;64680;53.800;9.988;2022-12-20T09:41:41;10.32;;;6.03;;
75993;SDS011;64680;53.800;9.988;2022-12-20T09:46:40;10.18;;;5.88;;
75993;SDS011;64680;53.800;9.988;2022-12-20T09:49:09;12.70;;;6.05;;
75993;SDS011;64680;53.800;9.988;2022-12-20T09:56:57;7.95;;;5.55;;
75993;SDS011;64680;53.800;9.988;2022-12-20T09:59:29;9.75;;;5.60;;
75993;SDS011;64680;53.800;9.988;2022-12-20T10:01:59;10.80;;;6.20;;
75993;SDS011;64680;53.800;9.988;2022-12-20T10:04:28;9.30;;;6.20;;
75993;SDS011;64680;53.800;9.988;2022-12-20T10:12:28;11.43;;;6.30;;
75993;SDS011;64680;53.800;9.988;2022-12-20T10:15:20;9.50;;;5.95;;
75993;SDS011;64680;53.800;9.988;2022-12-20T10:25:55;15.27;;;7.50;;
75993;SDS011;64680;53.800;9.988;2022-12-20T10:28:28;16.08;;;8.07;;
75993;SDS011;64680;53.800;9.988;2022-12-20T10:31:02;14.43;;;7.68;;
75993;SDS011;64680;53.800;9.988;2022-12-20T10:33:31;14.25;;;7.90;;
75993;SDS011;64680;53.800;9.988;2022-12-20T10:38:46;11.27;;;7.47;;
75993;SDS011;64680;53.800;9.988;2022-12-20T10:41:15;13.48;;;7.30;;
75993;SDS011;64680;53.800;9.988;2022-12-20T10:43:44;13.68;;;7.47;;
75993;SDS011;64680;53.800;9.988;2022-12-20T10:46:13;13.32;;;7.43;;
75993;SDS011;64680;53.800;9.988;2022-12-20T10:48:43;17.02;;;8.02;;
75993;SDS011;64680;53.800;9.988;2022-12-20T10:56:58;12.80;;;7.75;;
75993;SDS011;64680;53.800;9.988;2022-12-20T11:01:57;12.60;;;7.05;;
75993;SDS011;64680;53.800;9.988;2022-12-20T11:04:33;11.32;;;7.78;;
75993;SDS011;64680;53.800;9.988;2022-12-20T11:07:01;12.18;;;7.45;;
75993;SDS011;64680;53.800;9.988;2022-12-20T11:09:51;11.07;;;6.05;;
75993;SDS011;64680;53.800;9.988;2022-12-20T11:12:19;11.23;;;6.43;;
75993;SDS011;64680;53.800;9.988;2022-12-20T11:14:45;11.15;;;6.78;;
75993;SDS011;64680;53.800;9.988;2022-12-20T11:27:58;10.48;;;6.60;;
75993;SDS011;64680;53.800;9.988;2022-12-20T11:36:05;9.25;;;5.55;;
75993;SDS011;64680;53.800;9.988;2022-12-20T11:44:40;8.57;;;5.25;;
75993;SDS011;64680;53.800;9.988;2022-12-20T11:53:22;11.23;;;4.78;;
75993;SDS011;64680;53.800;9.988;2022-12-20T11:56:09;8.50;;;4.97;;
75993;SDS011;64680;53.800;9.988;2022-12-20T12:02:08;8.52;;;4.43;;
75993;SDS011;64680;53.800;9.988;2022-12-20T12:04:48;8.13;;;4.82;;
75993;SDS011;64680;53.800;9.988;2022-12-20T12:07:21;8.57;;;4.78;;
75993;SDS011;64680;53.800;9.988;2022-12-20T12:12:43;7.88;;;4.75;;
75993;SDS011;64680;53.800;9.988;2022-12-20T12:15:17;7.90;;;4.75;;
75993;SDS011;64680;53.800;9.988;2022-12-20T12:25:47;9.18;;;5.43;;
75993;SDS011;64680;53.800;9.988;2022-12-20T12:28:12;9.30;;;4.95;;
75993;SDS011;64680;53.800;9.988;2022-12-20T12:30:47;7.93;;;5.22;;
75993;SDS011;64680;53.800;9.988;2022-12-20T12:33:29;9.48;;;4.90;;
75993;SDS011;64680;53.800;9.988;2022-12-20T12:42:05;10.68;;;6.25;;
75993;SDS011;64680;53.800;9.988;2022-12-20T12:44:31;9.85;;;5.50;;
75993;SDS011;64680;53.800;9.988;2022-12-20T12:47:10;9.05;;;5.95;;
75993;SDS011;64680;53.800;9.988;2022-12-20T12:49:49;9.50;;;5.32;;
75993;SDS011;64680;53.800;9.988;2022-12-20T13:00:51;9.40;;;5.82;;
75993;SDS011;64680;53.800;9.988;2022-12-20T13:06:41;9.93;;;6.07;;
75993;SDS011;64680;53.800;9.988;2022-12-20T13:11:51;10.32;;;5.55;;
75993;SDS011;64680;53.800;9.988;2022-12-20T13:16:47;11.32;;;5.50;;
75993;SDS011;64680;53.800;9.988;2022-12-20T13:27:14;11.68;;;6.80;;
75993;SDS011;64680;53.800;9.988;2022-12-20T13:45:47;12.60;;;8.02;;
75993;SDS011;64680;53.800;9.988;2022-12-20T13:48:26;15.35;;;8.02;;
75993;SDS011;64680;53.800;9.988;2022-12-20T13:50:56;13.48;;;6.60;;
75993;SDS011;64680;53.800;9.988;2022-12-20T13:53:25;13.38;;;6.80;;
75993;SDS011;64680;53.800;9.988;2022-12-20T13:55:51;11.57;;;6.30;;
75993;SDS011;64680;53.800;9.988;2022-12-20T13:58:23;15.82;;;7.10;;
75993;SDS011;64680;53.800;9.988;2022-12-20T14:00:51;10.90;;;7.40;;
75993;SDS011;64680;53.800;9.988;2022-12-20T14:03:19;13.75;;;8.02;;
75993;SDS011;64680;53.800;9.988;2022-12-20T14:05:45;12.82;;;7.88;;
75993;SDS011;64680;53.800;9.988;2022-12-20T14:08:15;16.52;;;8.13;;
75993;SDS011;64680;53.800;9.988;2022-12-20T14:10:44;13.05;;;7.00;;
75993;SDS011;64680;53.800;9.988;2022-12-20T14:13:21;12.77;;;8.75;;
75993;SDS011;64680;53.800;9.988;2022-12-20T14:18:21;15.35;;;8.07;;
75993;SDS011;64680;53.800;9.988;2022-12-20T14:23:23;15.98;;;8.20;;
75993;SDS011;64680;53.800;9.988;2022-12-20T14:25:54;12.73;;;7.50;;
75993;SDS011;64680;53.800;9.988;2022-12-20T14:30:54;12.05;;;8.07;;
75993;SDS011;64680;53.800;9.988;2022-12-20T14:33:22;13.23;;;7.35;;
75993;SDS011;64680;53.800;9.988;2022-12-20T14:38:42;14.02;;;7.43;;
75993;SDS011;64680;53.800;9.988;2022-12-20T14:41:28;12.18;;;7.10;;
75993;SDS011;64680;53.800;9.988;2022-12-20T14:43:58;12.98;;;7.75;;
75993;SDS011;64680;53.800;9.988;2022-12-20T14:46:28;17.05;;;8.40;;
75993;SDS011;64680;53.800;9.988;2022-12-20T14:49:06;14.10;;;8.27;;
75993;SDS011;64680;53.800;9.988;2022-12-20T14:51:40;14.00;;;8.30;;
75993;SDS011;64680;53.800;9.988;2022-12-20T14:54:05;14.55;;;7.85;;
75993;SDS011;64680;53.800;9.988;2022-12-20T14:56:35;15.38;;;7.65;;
75993;SDS011;64680;53.800;9.988;2022-12-20T14:59:05;13.70;;;7.15;;
75993;SDS011;64680;53.800;9.988;2022-12-20T15:01:39;12.23;;;7.10;;
75993;SDS011;64680;53.800;9.988;2022-12-20T15:04:19;14.73;;;8.35;;
75993;SDS011;64680;53.800;9.988;2022-12-20T15:06:54;13.80;;;7.25;;
75993;SDS011;64680;53.800;9.988;2022-12-20T15:09:20;14.93;;;7.95;;
75993;SDS011;64680;53.800;9.988;2022-12-20T15:11:45;14.55;;;8.68;;
75993;SDS011;64680;53.800;9.988;2022-12-20T15:14:24;14.52;;;7.82;;
75993;SDS011;64680;53.800;9.988;2022-12-20T15:16:57;12.65;;;7.75;;
75993;SDS011;64680;53.800;9.988;2022-12-20T15:19:22;13.90;;;8.02;;
75993;SDS011;64680;53.800;9.988;2022-12-20T15:21:48;14.18;;;8.65;;
75993;SDS011;64680;53.800;9.988;2022-12-20T15:24:16;13.82;;;8.23;;
75993;SDS011;64680;53.800;9.988;2022-12-20T15:26:46;15.10;;;8.38;;
75993;SDS011;64680;53.800;9.988;2022-12-20T15:29:16;16.35;;;8.85;;
75993;SDS011;64680;53.800;9.988;2022-12-20T15:31:47;16.67;;;8.93;;
75993;SDS011;64680;53.800;9.988;2022-12-20T15:36:39;14.38;;;8.05;;
75993;SDS011;64680;53.800;9.988;2022-12-20T15:39:05;16.20;;;9.52;;
75993;SDS011;64680;53.800;9.988;2022-12-20T15:41:31;13.70;;;7.75;;
75993;SDS011;64680;53.800;9.988;2022-12-20T15:44:09;19.02;;;10.00;;
75993;SDS011;64680;53.800;9.988;2022-12-20T15:49:03;41.35;;;15.13;;
75993;SDS011;64680;53.800;9.988;2022-12-20T15:51:33;14.60;;;8.98;;
75993;SDS011;64680;53.800;9.988;2022-12-20T15:54:01;12.88;;;8.50;;
75993;SDS011;64680;53.800;9.988;2022-12-20T15:56:29;13.60;;;8.35;;
75993;SDS011;64680;53.800;9.988;2022-12-20T15:58:55;15.02;;;8.88;;
75993;SDS011;64680;53.800;9.988;2022-12-20T16:01:22;11.85;;;7.80;;
75993;SDS011;64680;53.800;9.988;2022-12-20T16:03:51;13.50;;;8.52;;
75993;SDS011;64680;53.800;9.988;2022-12-20T16:06:16;16.15;;;10.25;;
75993;SDS011;64680;53.800;9.988;2022-12-20T16:08:42;16.95;;;9.85;;
75993;SDS011;64680;53.800;9.988;2022-12-20T16:11:25;16.80;;;10.30;;
75993;SDS011;64680;53.800;9.988;2022-12-20T16:13:53;15.30;;;9.85;;
75993;SDS011;64680;53.800;9.988;2022-12-20T16:16:20;17.27;;;9.20;;
75993;SDS011;64680;53.800;9.988;2022-12-20T16:18:47;16.05;;;8.93;;
75993;SDS011;64680;53.800;9.988;2022-12-20T16:21:17;18.58;;;10.23;;
75993;SDS011;64680;53.800;9.988;2022-12-20T16:23:51;14.02;;;8.40;;
75993;SDS011;64680;53.800;9.988;2022-12-20T16:26:19;12.95;;;8.02;;
75993;SDS011;64680;53.800;9.988;2022-12-20T16:28:46;14.45;;;9.18;;
75993;SDS011;64680;53.800;9.988;2022-12-20T16:31:23;14.45;;;8.52;;
75993;SDS011;64680;53.800;9.988;2022-12-20T16:33:53;16.67;;;9.07;;
75993;SDS011;64680;53.800;9.988;2022-12-20T16:36:19;17.02;;;9.10;;
75993;SDS011;64680;53.800;9.988;2022-12-20T16:38:45;16.05;;;8.23;;
75993;SDS011;64680;53.800;9.988;2022-12-20T16:41:12;14.32;;;8.75;;
75993;SDS011;64680;53.800;9.988;2022-12-20T16:46:05;18.63;;;8.60;;
75993;SDS011;64680;53.800;9.988;2022-12-20T16:48:34;15.90;;;10.07;;
75993;SDS011;64680;53.800;9.988;2022-12-20T16:50:59;16.88;;;10.00;;
75993;SDS011;64680;53.800;9.988;2022-12-20T16:53:25;15.57;;;9.13;;
75993;SDS011;64680;53.800;9.988;2022-12-20T16:55:50;15.65;;;9.00;;
75993;SDS011;64680;53.800;9.988;2022-12-20T16:58:16;18.35;;;9.18;;
75993;SDS011;64680;53.800;9.988;2022-12-20T17:00:41;21.33;;;10.25;;
75993;SDS011;64680;53.800;9.988;2022-12-20T17:03:07;15.63;;;9.73;;
75993;SDS011;64680;53.800;9.988;2022-12-20T17:05:34;18.08;;;10.18;;
75993;SDS011;64680;53.800;9.988;2022-12-20T17:08:01;17.48;;;10.15;;
75993;SDS011;64680;53.800;9.988;2022-12-20T17:10:27;18.08;;;9.93;;
75993;SDS011;64680;53.800;9.988;2022-12-20T17:12:54;20.10;;;11.57;;
75993;SDS011;64680;53.800;9.988;2022-12-20T17:15:25;20.00;;;10.25;;
75993;SDS011;64680;53.800;9.988;2022-12-20T17:17:53;18.98;;;11.82;;
75993;SDS011;64680;53.800;9.988;2022-12-20T17:20:19;18.92;;;11.57;;